Time;durP1;ratioP1;P1;durP2;ratioP2;P2;SDS_P1;SDS_P2;PMS_P1;PMS_P2;Temp;Humidity;BMP_temperature;BMP_pressure;BME280_temperature;BME280_humidity;BME280_pressure;Samples;Min_cycle;Max_cycle;Signal;HPM_P1;HPM_P2
2020/12/13 00:00:23;;;;;;;33.90;5.50;;;;;;;4.17;86.02;95327.63;5128793;27;20043;-65
2020/12/13 00:02:49;;;;;;;44.30;6.13;;;;;;;4.20;86.03;95321.63;5132138;27;20042;-65
2020/12/13 00:05:15;;;;;;;40.03;6.28;;;;;;;4.31;85.79;95330.31;5133264;27;20543;-65
2020/12/13 00:07:42;;;;;;;41.83;5.85;;;;;;;4.30;85.38;95331.41;5134608;27;20053;-64
2020/12/13 00:10:08;;;;;;;23.17;4.68;;;;;;;4.33;85.00;95331.59;5133673;27;20522;-65
2020/12/13 00:12:36;;;;;;;35.38;5.35;;;;;;;4.26;85.33;95330.41;5134531;27;20499;-65
2020/12/13 00:15:03;;;;;;;26.98;5.10;;;;;;;4.38;85.16;95344.94;5133839;27;20039;-65
2020/12/13 00:17:29;;;;;;;30.05;4.45;;;;;;;4.40;84.66;95337.38;5134511;27;20047;-65
2020/12/13 00:19:55;;;;;;;29.98;4.75;;;;;;;4.32;84.43;95345.38;5134115;27;20500;-65
2020/12/13 00:22:21;;;;;;;38.45;4.95;;;;;;;4.24;84.77;95349.59;5133585;27;20562;-64
2020/12/13 00:24:48;;;;;;;32.67;4.55;;;;;;;4.18;85.04;95350.78;5134181;27;20043;-65
2020/12/13 00:27:14;;;;;;;40.42;5.00;;;;;;;4.30;85.15;95356.47;5131836;27;20046;-65
2020/12/13 00:29:41;;;;;;;36.67;5.18;;;;;;;4.28;84.64;95350.59;5134197;27;20043;-64
2020/12/13 00:32:07;;;;;;;26.95;4.35;;;;;;;4.35;84.79;95353.66;5133240;27;20405;-65
2020/12/13 00:34:33;;;;;;;33.20;5.10;;;;;;;4.29;84.49;95354.06;5133689;27;20046;-64
2020/12/13 00:37:00;;;;;;;25.65;4.70;;;;;;;4.27;84.93;95353.56;5133890;27;20035;-64
2020/12/13 00:39:26;;;;;;;31.40;4.85;;;;;;;4.26;84.66;95350.06;5133773;27;20123;-65
2020/12/13 00:41:54;;;;;;;35.33;4.80;;;;;;;4.30;84.92;95353.75;5133871;27;20046;-65
2020/12/13 00:44:20;;;;;;;35.88;5.05;;;;;;;4.32;84.83;95356.94;5133504;27;20043;-65
2020/12/13 00:46:47;;;;;;;25.95;4.63;;;;;;;4.19;84.95;95363.16;5133398;27;20409;-65
2020/12/13 00:49:14;;;;;;;35.03;4.90;;;;;;;4.18;84.87;95356.19;5133216;27;20043;-65
2020/12/13 00:51:40;;;;;;;31.63;4.82;;;;;;;4.17;85.16;95359.94;5133206;27;20047;-65
2020/12/13 00:54:06;;;;;;;26.77;4.65;;;;;;;4.22;85.05;95362.53;5133338;27;20050;-66
2020/12/13 00:56:32;;;;;;;31.30;5.30;;;;;;;4.21;85.07;95365.53;5133439;27;20039;-65
2020/12/13 00:58:58;;;;;;;26.65;4.60;;;;;;;4.20;85.18;95370.16;5133575;27;20127;-64
2020/12/13 01:01:24;;;;;;;32.58;4.97;;;;;;;4.27;85.00;95375.91;5132482;27;20035;-64
2020/12/13 01:03:50;;;;;;;36.03;4.70;;;;;;;4.28;84.79;95374.00;5133489;27;20043;-65
2020/12/13 01:06:21;;;;;;;40.65;4.97;;;;;;;4.23;85.06;95374.13;5132819;27;20054;-65
2020/12/13 01:08:47;;;;;;;36.80;5.40;;;;;;;4.18;85.11;95383.13;5133511;27;20567;-65
2020/12/13 01:11:13;;;;;;;37.42;5.45;;;;;;;4.19;85.09;95384.72;5132659;27;20043;-65
2020/12/13 01:13:39;;;;;;;41.45;5.32;;;;;;;4.27;84.98;95386.69;5132727;27;20074;-64
2020/12/13 01:16:06;;;;;;;39.28;5.22;;;;;;;4.17;85.16;95394.97;5132672;27;20041;-65
2020/12/13 01:18:31;;;;;;;29.73;5.28;;;;;;;4.28;84.91;95393.69;5133271;27;20054;-65
2020/12/13 01:20:57;;;;;;;29.77;4.78;;;;;;;4.40;84.72;95401.28;5132827;27;20031;-65
2020/12/13 01:23:23;;;;;;;28.20;5.32;;;;;;;4.42;84.70;95397.16;5132952;27;20043;-65
2020/12/13 01:25:49;;;;;;;36.03;5.00;;;;;;;4.40;84.25;95406.66;5132843;27;20042;-65
2020/12/13 01:28:15;;;;;;;37.53;5.30;;;;;;;4.41;84.15;95400.97;5132540;27;20096;-65
2020/12/13 01:30:41;;;;;;;37.65;5.45;;;;;;;4.28;84.61;95407.19;5133061;27;20508;-64
2020/12/13 01:33:08;;;;;;;30.52;4.68;;;;;;;4.33;84.48;95407.06;5132420;27;20039;-65
2020/12/13 01:35:34;;;;;;;33.97;5.00;;;;;;;4.31;84.63;95413.84;5132621;27;20398;-65
2020/12/13 01:38:00;;;;;;;31.85;4.75;;;;;;;4.24;84.65;95413.47;5132784;27;20051;-64
2020/12/13 01:40:26;;;;;;;33.13;4.75;;;;;;;4.30;84.42;95412.25;5132594;27;20043;-64
2020/12/13 01:42:52;;;;;;;48.28;5.47;;;;;;;4.28;84.67;95422.53;5132714;27;20043;-65
2020/12/13 01:45:19;;;;;;;29.23;4.53;;;;;;;4.22;84.75;95427.22;5132026;27;20078;-64
2020/12/13 01:47:49;;;;;;;35.85;4.40;;;;;;;4.27;84.23;95426.31;5132484;27;20455;-64
2020/12/13 01:50:28;;;;;;;30.35;4.03;;;;;;;4.34;84.47;95427.53;5111567;27;20039;-65
2020/12/13 01:53:13;;;;;;;35.50;4.20;;;;;;;4.26;84.36;95425.53;5112222;27;20074;-65
2020/12/13 01:55:41;;;;;;;40.97;4.82;;;;;;;4.20;84.56;95429.41;5111362;28;20051;-64
2020/12/13 01:58:13;;;;;;;28.30;4.07;;;;;;;4.23;84.77;95431.53;5111387;28;20039;-65
2020/12/13 02:00:40;;;;;;;28.45;3.95;;;;;;;4.30;84.53;95436.50;5111258;28;20098;-65
2020/12/13 02:03:08;;;;;;;22.67;4.15;;;;;;;4.30;84.63;95433.81;5111258;27;20054;-65
2020/12/13 02:05:37;;;;;;;33.72;5.10;;;;;;;4.11;85.63;95433.91;5111805;28;20043;-64
2020/12/13 02:08:05;;;;;;;34.80;5.47;;;;;;;3.83;86.83;95436.59;5111266;28;20050;-65
2020/12/13 02:10:31;;;;;;;36.35;5.53;;;;;;;3.74;87.70;95438.34;5110352;28;20043;-64
2020/12/13 02:12:57;;;;;;;41.28;6.15;;;;;;;3.76;88.13;95438.88;5111641;28;20458;-65
2020/12/13 02:15:23;;;;;;;34.97;5.45;;;;;;;3.72;88.28;95445.16;5111118;28;20043;-65
2020/12/13 02:17:49;;;;;;;43.85;5.65;;;;;;;3.72;88.10;95445.16;5111912;27;20044;-65
2020/12/13 02:20:15;;;;;;;28.90;4.70;;;;;;;3.73;88.34;95450.22;5131587;27;20046;-65
2020/12/13 02:22:48;;;;;;;41.03;5.90;;;;;;;3.72;88.45;95445.94;5132156;27;20549;-65
2020/12/13 02:25:16;;;;;;;28.63;4.67;;;;;;;3.75;88.33;95449.91;5120106;27;20047;-65
2020/12/13 02:27:42;;;;;;;56.97;6.43;;;;;;;3.70;88.46;95450.81;5110300;28;20036;-64
2020/12/13 02:30:09;;;;;;;38.42;6.65;;;;;;;3.66;88.96;95450.63;5109800;28;20055;-65
2020/12/13 02:32:35;;;;;;;37.10;6.65;;;;;;;3.73;88.86;95452.91;5111290;28;20044;-65
2020/12/13 02:35:03;;;;;;;36.58;5.97;;;;;;;3.72;88.77;95453.22;5110633;28;20051;-65
2020/12/13 02:37:29;;;;;;;37.25;6.15;;;;;;;3.74;88.93;95449.13;5111098;28;20042;-64
2020/12/13 02:39:56;;;;;;;32.10;5.45;;;;;;;3.71;88.99;95449.75;5111133;28;20506;-64
2020/12/13 02:42:22;;;;;;;35.33;6.18;;;;;;;3.78;89.12;95452.84;5110522;27;20449;-64
2020/12/13 02:44:48;;;;;;;41.08;6.35;;;;;;;3.74;88.89;95457.19;5111094;28;20089;-64
2020/12/13 02:47:14;;;;;;;35.60;5.90;;;;;;;3.67;89.18;95462.19;5110514;27;20090;-64
2020/12/13 02:49:42;;;;;;;37.35;6.03;;;;;;;3.71;89.58;95465.88;5127195;27;20486;-64
2020/12/13 02:52:08;;;;;;;37.03;6.20;;;;;;;3.62;89.66;95473.03;5130053;27;20711;-65
2020/12/13 02:54:34;;;;;;;44.03;6.40;;;;;;;3.68;89.69;95469.16;5131290;27;20413;-64
2020/12/13 02:57:01;;;;;;;38.53;6.85;;;;;;;3.65;89.65;95478.66;5129313;27;20062;-67
2020/12/13 02:59:27;;;;;;;40.13;6.85;;;;;;;3.64;89.91;95473.53;5131378;27;20050;-64
2020/12/13 03:01:53;;;;;;;42.33;6.70;;;;;;;3.60;90.22;95472.53;5131042;27;20047;-64
2020/12/13 03:04:19;;;;;;;35.60;5.72;;;;;;;3.73;90.01;95481.75;5130964;27;20092;-64
2020/12/13 03:06:45;;;;;;;34.08;6.07;;;;;;;3.69;89.67;95478.03;5130910;27;20047;-64
2020/12/13 03:09:11;;;;;;;44.10;5.93;;;;;;;3.63;89.90;95485.41;5130668;27;20047;-64
2020/12/13 03:11:37;;;;;;;44.88;6.03;;;;;;;3.75;89.68;95483.03;5131069;27;20103;-64
2020/12/13 03:14:04;;;;;;;32.72;5.95;;;;;;;3.77;89.51;95490.84;5130697;27;20050;-64
2020/12/13 03:16:30;;;;;;;41.88;5.88;;;;;;;3.71;89.30;95492.81;5130737;27;20043;-64
2020/12/13 03:18:56;;;;;;;32.75;5.63;;;;;;;3.71;89.54;95492.00;5131347;27;20050;-64
2020/12/13 03:21:22;;;;;;;43.67;6.43;;;;;;;3.75;89.43;95491.09;5129651;27;20076;-64
2020/12/13 03:23:48;;;;;;;29.55;5.63;;;;;;;3.72;89.23;95494.41;5130510;27;20196;-64
2020/12/13 03:26:14;;;;;;;41.67;6.53;;;;;;;3.65;89.59;95500.19;5129594;27;20081;-64
2020/12/13 03:28:40;;;;;;;36.15;5.55;;;;;;;3.74;89.71;95502.19;5130801;27;20047;-64
2020/12/13 03:31:06;;;;;;;40.85;6.10;;;;;;;3.76;89.78;95497.28;5130434;27;20398;-65
2020/12/13 03:33:33;;;;;;;38.50;6.22;;;;;;;3.76;89.78;95511.59;5130673;27;20051;-64
2020/12/13 03:35:58;;;;;;;40.67;6.15;;;;;;;3.73;89.72;95512.16;5130590;27;20039;-64
2020/12/13 03:38:24;;;;;;;36.60;6.43;;;;;;;3.71;89.86;95508.97;5129557;27;20124;-64
2020/12/13 03:40:50;;;;;;;45.75;6.50;;;;;;;3.66;89.83;95517.13;5130186;27;20073;-64
2020/12/13 03:43:16;;;;;;;36.05;6.82;;;;;;;3.70;89.90;95515.44;5129997;27;20527;-64
2020/12/13 03:45:42;;;;;;;41.45;7.25;;;;;;;3.79;89.84;95516.34;5130492;27;20103;-64
2020/12/13 03:48:09;;;;;;;39.58;6.97;;;;;;;3.76;89.77;95519.66;5130314;27;20452;-64
2020/12/13 03:50:40;;;;;;;42.45;6.80;;;;;;;3.70;90.04;95517.31;5130273;27;20402;-64
2020/12/13 03:53:08;;;;;;;33.30;6.35;;;;;;;3.79;89.60;95519.06;5129559;27;20095;-65
2020/12/13 03:55:34;;;;;;;39.20;6.45;;;;;;;3.80;89.67;95517.94;5130402;27;20043;-64
2020/12/13 03:58:00;;;;;;;33.00;5.90;;;;;;;3.95;89.46;95521.50;5130298;27;20520;-64
2020/12/13 04:00:27;;;;;;;29.52;5.45;;;;;;;3.96;89.03;95520.38;5130419;27;20046;-64
2020/12/13 04:02:54;;;;;;;46.00;6.65;;;;;;;4.00;88.81;95522.19;5130299;27;20047;-64
2020/12/13 04:05:21;;;;;;;37.47;5.82;;;;;;;4.07;88.59;95521.81;5129698;27;20047;-64
2020/12/13 04:07:47;;;;;;;37.92;6.05;;;;;;;4.09;88.21;95525.81;5130492;27;20438;-64
2020/12/13 04:10:13;;;;;;;53.90;6.65;;;;;;;4.07;88.55;95532.59;5129654;27;20077;-64
2020/12/13 04:12:39;;;;;;;34.95;5.63;;;;;;;4.09;88.35;95535.78;5130562;27;20233;-64
2020/12/13 04:15:05;;;;;;;35.35;5.75;;;;;;;4.18;88.00;95531.34;5129439;27;20556;-65
2020/12/13 04:17:31;;;;;;;42.55;6.30;;;;;;;4.07;87.95;95543.34;5130534;27;20042;-64
2020/12/13 04:19:57;;;;;;;28.67;5.38;;;;;;;4.05;88.08;95537.47;5130392;27;20047;-64
2020/12/13 04:22:24;;;;;;;30.00;5.47;;;;;;;4.07;87.99;95532.59;5129881;27;20464;-64
2020/12/13 04:24:50;;;;;;;44.20;5.82;;;;;;;4.18;87.90;95544.81;5130131;27;20054;-64
2020/12/13 04:27:16;;;;;;;29.63;5.40;;;;;;;4.16;87.67;95546.97;5129057;27;20401;-64
2020/12/13 04:29:42;;;;;;;39.72;5.60;;;;;;;4.12;87.88;95549.47;5130190;27;20082;-64
2020/12/13 04:32:09;;;;;;;35.08;5.28;;;;;;;4.09;87.94;95550.06;5129675;27;20054;-64
2020/12/13 04:34:35;;;;;;;35.72;5.25;;;;;;;4.15;87.94;95553.47;5116483;27;20040;-64
2020/12/13 04:37:02;;;;;;;43.20;5.68;;;;;;;4.19;87.50;95557.19;5108281;28;20047;-65
2020/12/13 04:39:29;;;;;;;31.27;5.22;;;;;;;4.17;87.57;95559.34;5108913;28;20039;-64
2020/12/13 04:41:55;;;;;;;33.50;5.32;;;;;;;4.25;87.42;95560.56;5109341;28;20495;-64
2020/12/13 04:44:21;;;;;;;32.85;4.82;;;;;;;4.20;87.39;95558.75;5109331;28;20434;-64
2020/12/13 04:46:47;;;;;;;27.40;4.90;;;;;;;4.23;87.21;95558.19;5109399;28;20043;-64
2020/12/13 04:49:14;;;;;;;24.50;4.63;;;;;;;4.27;87.27;95569.94;5110073;27;20056;-64
2020/12/13 04:51:42;;;;;;;40.83;5.30;;;;;;;4.27;87.13;95574.53;5113022;28;20039;-64
2020/12/13 04:54:08;;;;;;;29.05;4.78;;;;;;;4.18;87.55;95567.16;5112590;27;20044;-64
2020/12/13 04:56:36;;;;;;;33.15;5.70;;;;;;;4.08;87.76;95577.31;5119161;27;20039;-64
2020/12/13 04:59:04;;;;;;;32.33;5.57;;;;;;;4.17;88.13;95583.59;5133482;27;20043;-65
2020/12/13 05:01:30;;;;;;;45.28;6.45;;;;;;;4.25;87.66;95587.53;5132471;27;20532;-64
2020/12/13 05:03:56;;;;;;;33.22;6.15;;;;;;;4.18;87.89;95588.72;5133316;27;20047;-64
2020/12/13 05:06:23;;;;;;;37.30;6.93;;;;;;;4.19;88.08;95592.22;5132798;27;20046;-64
2020/12/13 05:08:49;;;;;;;39.50;6.63;;;;;;;4.16;88.17;95590.88;5133548;27;20043;-64
2020/12/13 05:11:15;;;;;;;40.90;7.30;;;;;;;4.06;88.65;95593.75;5132975;27;20088;-64
2020/12/13 05:13:42;;;;;;;40.65;7.55;;;;;;;4.16;88.75;95600.88;5133316;27;20043;-64
2020/12/13 05:16:09;;;;;;;37.45;6.93;;;;;;;4.26;88.65;95597.19;5132868;27;20042;-64
2020/12/13 05:18:38;;;;;;;45.47;7.57;;;;;;;4.23;88.70;95592.38;5133459;27;20039;-64
2020/12/13 05:21:05;;;;;;;37.88;7.25;;;;;;;4.30;88.43;95604.41;5132800;27;20120;-64
2020/12/13 05:23:31;;;;;;;42.53;7.68;;;;;;;4.26;88.58;95599.91;5133220;27;20047;-64
2020/12/13 05:25:57;;;;;;;82.60;9.90;;;;;;;4.18;88.74;95598.69;5131444;27;20035;-64
2020/12/13 05:28:25;;;;;;;34.80;7.70;;;;;;;4.26;88.92;95599.91;5132390;27;20043;-64
2020/12/13 05:30:52;;;;;;;43.40;9.05;;;;;;;4.13;89.04;95606.88;5132123;27;20039;-64
2020/12/13 05:33:24;;;;;;;31.67;7.72;;;;;;;4.18;89.12;95617.56;5132246;27;20047;-64
2020/12/13 05:35:53;;;;;;;43.28;8.55;;;;;;;4.22;88.87;95621.25;5132761;27;20039;-64
2020/12/13 05:38:22;;;;;;;47.53;8.98;;;;;;;4.27;89.12;95625.75;5132507;27;20418;-64
2020/12/13 05:40:49;;;;;;;40.60;7.80;;;;;;;4.28;89.11;95625.47;5132911;27;20046;-64
2020/12/13 05:43:16;;;;;;;30.40;7.68;;;;;;;4.28;88.89;95630.88;5132520;27;20526;-64
2020/12/13 05:46:05;;;;;;;52.45;9.20;;;;;;;4.24;88.73;95640.63;5132766;27;20422;-64
2020/12/13 05:54:03;;;;;;;42.55;8.35;;;;;;;4.41;88.64;95646.25;5129526;27;20434;-65
2020/12/13 05:56:30;;;;;;;33.55;8.18;;;;;;;4.47;88.37;95638.09;5132149;27;20042;-64
2020/12/13 05:58:59;;;;;;;44.78;9.05;;;;;;;4.49;87.96;95643.97;5132662;27;20057;-64
2020/12/13 06:01:25;;;;;;;40.90;8.95;;;;;;;4.41;88.04;95646.25;5131678;27;20039;-64
2020/12/13 06:03:54;;;;;;;34.80;8.82;;;;;;;4.36;88.71;95649.03;5132315;27;20375;-64
2020/12/13 06:06:24;;;;;;;47.40;9.65;;;;;;;4.40;88.43;95655.44;5131255;27;20050;-64
2020/12/13 06:09:01;;;;;;;50.17;8.85;;;;;;;4.31;88.62;95665.28;5132439;27;20039;-64
2020/12/13 06:11:35;;;;;;;48.10;9.63;;;;;;;4.26;88.64;95659.19;5131775;27;20058;-64
2020/12/13 06:14:07;;;;;;;44.75;9.15;;;;;;;4.34;88.73;95667.41;5132057;27;20054;-67
2020/12/13 06:16:33;;;;;;;44.55;9.50;;;;;;;4.34;88.65;95678.19;5132192;27;20119;-64
2020/12/13 06:19:02;;;;;;;42.95;8.90;;;;;;;4.38;88.72;95675.69;5132127;27;20046;-64
2020/12/13 06:21:29;;;;;;;54.78;10.48;;;;;;;4.41;88.73;95673.22;5131459;27;20042;-64
2020/12/13 06:23:56;;;;;;;43.47;9.40;;;;;;;4.44;88.66;95680.72;5132186;27;20395;-64
2020/12/13 06:26:23;;;;;;;50.05;10.45;;;;;;;4.39;88.46;95683.50;5130563;27;20740;-64
2020/12/13 06:28:51;;;;;;;43.83;10.18;;;;;;;4.34;88.73;95678.19;5132010;27;20039;-64
2020/12/13 06:31:17;;;;;;;41.22;10.00;;;;;;;4.40;88.70;95687.78;5131429;27;20046;-64
2020/12/13 06:33:44;;;;;;;45.92;11.02;;;;;;;4.41;88.79;95684.00;5131508;27;20618;-64
2020/12/13 06:36:12;;;;;;;49.92;10.90;;;;;;;4.35;88.90;95690.56;5131037;27;20043;-64
2020/12/13 06:38:40;;;;;;;45.55;10.25;;;;;;;4.39;88.68;95685.41;5131642;27;20046;-64
2020/12/13 06:41:10;;;;;;;44.97;11.07;;;;;;;4.49;88.59;95682.53;5131081;27;20047;-65
2020/12/13 06:43:40;;;;;;;58.53;12.00;;;;;;;4.48;88.64;95689.00;5131171;27;20039;-64
2020/12/13 06:46:10;;;;;;;48.55;10.90;;;;;;;4.48;88.41;95686.31;5126745;27;20494;-65
2020/12/13 06:48:36;;;;;;;70.03;12.38;;;;;;;4.44;88.58;95682.63;5128567;27;20058;-64
2020/12/13 06:51:06;;;;;;;71.28;12.48;;;;;;;4.42;88.47;95688.28;5127242;27;20042;-65
2020/12/13 06:53:34;;;;;;;72.50;12.00;;;;;;;4.50;88.62;95694.13;5128326;27;20051;-64
2020/12/13 06:56:07;;;;;;;81.60;12.55;;;;;;;4.49;88.47;95700.59;5127470;27;20439;-64
2020/12/13 06:58:40;;;;;;;;;;;;;;;4.49;88.57;95700.59;5108086;27;20039;-64
2020/12/13 07:01:15;;;;;;;70.53;12.02;;;;;;;4.43;88.59;95703.34;5120058;27;19923;-65
2020/12/13 07:03:41;;;;;;;85.00;12.77;;;;;;;4.47;88.62;95708.97;5127849;27;20070;-64
2020/12/13 07:06:08;;;;;;;72.07;12.23;;;;;;;4.56;88.74;95711.81;5127360;27;20058;-65
2020/12/13 07:08:35;;;;;;;75.35;12.52;;;;;;;4.55;88.43;95718.31;5127941;27;20074;-64
2020/12/13 07:11:02;;;;;;;73.18;13.45;;;;;;;4.51;88.50;95725.38;5127542;27;20085;-65
2020/12/13 07:13:32;;;;;;;66.43;13.25;;;;;;;4.49;88.55;95722.16;5127612;27;20047;-64
2020/12/13 07:16:02;;;;;;;71.70;13.23;;;;;;;4.50;88.84;95721.06;5127776;27;20046;-64
2020/12/13 07:18:31;;;;;;;66.68;12.85;;;;;;;4.52;88.67;95726.97;5128009;27;20046;-65
2020/12/13 07:20:57;;;;;;;63.70;12.45;;;;;;;4.55;88.42;95732.59;5127882;27;20135;-64
2020/12/13 07:23:23;;;;;;;69.15;13.45;;;;;;;4.53;88.58;95731.25;5127401;27;20047;-64
2020/12/13 07:25:50;;;;;;;69.78;13.02;;;;;;;4.60;88.55;95735.19;5127709;27;20058;-64
2020/12/13 07:28:18;;;;;;;69.53;13.13;;;;;;;4.58;88.22;95742.75;5127022;27;20047;-64
2020/12/13 07:30:44;;;;;;;72.82;13.10;;;;;;;4.50;88.69;95750.72;5127650;27;20447;-64
2020/12/13 07:33:11;;;;;;;79.75;13.32;;;;;;;4.46;88.83;95750.50;5126711;27;20047;-65
2020/12/13 07:35:36;;;;;;;72.35;13.15;;;;;;;4.50;89.03;95750.72;5127169;27;20043;-64
2020/12/13 07:38:03;;;;;;;61.60;12.82;;;;;;;4.51;88.75;95752.34;5127571;27;20672;-65
2020/12/13 07:40:29;;;;;;;84.63;13.07;;;;;;;4.54;88.64;95757.13;5127584;27;20047;-64
2020/12/13 07:42:57;;;;;;;71.47;13.13;;;;;;;4.61;88.80;95760.25;5127642;27;20399;-64
2020/12/13 07:45:23;;;;;;;76.15;12.63;;;;;;;4.64;88.76;95763.16;5126559;27;20406;-64
2020/12/13 07:47:50;;;;;;;77.40;13.93;;;;;;;4.60;88.62;95769.44;5127473;27;20046;-64
2020/12/13 07:50:17;;;;;;;53.97;12.25;;;;;;;4.57;89.06;95773.53;5127174;27;20545;-64
2020/12/13 07:52:45;;;;;;;78.50;14.20;;;;;;;4.62;89.24;95775.34;5127444;27;20070;-64
2020/12/13 07:55:11;;;;;;;75.15;14.60;;;;;;;4.66;89.15;95781.75;5126783;27;20051;-64
2020/12/13 07:57:37;;;;;;;80.40;13.98;;;;;;;4.69;89.05;95775.75;5127058;27;20043;-64
2020/12/13 08:00:08;;;;;;;86.50;13.45;;;;;;;4.67;88.89;95783.34;5126328;27;20494;-64
2020/12/13 08:02:34;;;;;;;73.22;13.52;;;;;;;4.64;88.83;95783.94;5127069;27;20043;-64
2020/12/13 08:05:02;;;;;;;49.47;12.90;;;;;;;4.67;89.23;95792.25;5126891;27;20066;-64
2020/12/13 08:07:29;;;;;;;80.38;14.60;;;;;;;4.76;89.30;95796.97;5126797;27;20074;-64
2020/12/13 08:09:57;;;;;;;68.40;13.38;;;;;;;4.81;89.01;95789.59;5127413;27;20058;-64
2020/12/13 08:12:29;;;;;;;68.97;14.00;;;;;;;4.80;89.11;95792.56;5126505;27;20074;-64
2020/12/13 08:14:55;;;;;;;66.18;13.60;;;;;;;4.74;88.92;95793.75;5126648;27;20051;-64
2020/12/13 08:17:22;;;;;;;66.20;14.80;;;;;;;4.78;88.91;95803.66;5126515;27;20051;-65
2020/12/13 08:19:50;;;;;;;78.85;14.75;;;;;;;4.78;88.79;95800.16;5126924;27;20047;-64
2020/12/13 08:22:20;;;;;;;63.17;12.98;;;;;;;4.74;88.99;95805.34;5126680;27;20054;-64
2020/12/13 08:24:53;;;;;;;67.32;13.68;;;;;;;4.80;88.92;95806.06;5128888;27;20038;-65
2020/12/13 08:27:19;;;;;;;70.10;13.85;;;;;;;4.78;88.82;95806.38;5130108;27;20047;-65
2020/12/13 08:29:45;;;;;;;85.22;14.70;;;;;;;4.79;89.10;95812.56;5131049;27;20500;-64
2020/12/13 08:32:13;;;;;;;72.10;14.07;;;;;;;4.66;89.26;95816.81;5130932;27;20057;-65
2020/12/13 08:34:40;;;;;;;62.75;14.15;;;;;;;4.70;89.57;95820.53;5130985;27;20043;-66
2020/12/13 08:37:06;;;;;;;80.50;14.00;;;;;;;4.76;89.61;95824.75;5130724;27;20043;-68
2020/12/13 08:39:33;;;;;;;74.95;14.02;;;;;;;4.78;89.33;95827.94;5131360;27;20047;-67
2020/12/13 08:42:01;;;;;;;76.47;15.07;;;;;;;4.81;89.54;95827.38;5130726;27;20413;-67
2020/12/13 08:44:31;;;;;;;76.82;13.77;;;;;;;4.90;89.19;95838.28;5130220;27;20054;-67
2020/12/13 08:46:58;;;;;;;83.78;12.95;;;;;;;4.96;88.87;95839.81;5130785;27;20050;-67
2020/12/13 08:49:26;;;;;;;75.85;14.13;;;;;;;4.92;88.96;95839.59;5129924;27;20509;-66
2020/12/13 08:51:53;;;;;;;80.68;13.60;;;;;;;5.03;88.98;95836.72;5130571;27;20553;-67
2020/12/13 08:54:19;;;;;;;62.65;12.68;;;;;;;5.06;88.46;95834.22;5129941;27;20047;-67
2020/12/13 08:56:45;;;;;;;73.35;12.18;;;;;;;5.12;88.74;95837.66;5129977;27;20051;-67
2020/12/13 08:59:19;;;;;;;73.88;13.07;;;;;;;5.07;88.48;95843.94;5130207;27;20460;-67
2020/12/13 09:01:53;;;;;;;72.65;13.25;;;;;;;5.13;88.63;95840.06;5130466;27;20043;-66
2020/12/13 09:04:20;;;;;;;57.15;12.55;;;;;;;5.11;88.68;95852.25;5130226;27;20157;-67
2020/12/13 09:06:55;;;;;;;68.10;12.57;;;;;;;5.10;88.71;95856.84;5130316;27;20521;-66
2020/12/13 09:09:22;;;;;;;67.93;12.60;;;;;;;5.04;88.64;95862.63;5130070;27;20787;-67
2020/12/13 09:11:48;;;;;;;52.97;12.80;;;;;;;5.07;88.66;95868.25;5130426;27;20046;-67
2020/12/13 09:14:25;;;;;;;82.07;14.60;;;;;;;4.96;89.06;95861.41;5129873;27;20051;-66
2020/12/13 09:16:51;;;;;;;84.60;14.07;;;;;;;5.01;89.14;95874.00;5130391;27;20421;-67
2020/12/13 09:19:17;;;;;;;71.05;13.60;;;;;;;5.11;89.19;95871.13;5129814;27;20055;-66
2020/12/13 09:21:49;;;;;;;74.25;14.65;;;;;;;5.11;88.92;95885.41;5129685;27;20405;-66
2020/12/13 09:24:18;;;;;;;75.97;13.07;;;;;;;5.09;89.04;95881.44;5129488;27;20043;-66
2020/12/13 09:26:59;;;;;;;82.18;14.32;;;;;;;4.96;89.43;95878.38;5129093;27;20042;-66
2020/12/13 09:29:25;;;;;;;72.00;13.90;;;;;;;5.01;89.27;95887.47;5129129;27;20047;-66
2020/12/13 09:31:51;;;;;;;81.03;15.13;;;;;;;5.04;89.56;95893.09;5129715;27;20058;-66
2020/12/13 09:34:17;;;;;;;77.32;14.40;;;;;;;5.12;89.25;95899.75;5128924;27;20067;-66
2020/12/13 09:36:44;;;;;;;59.10;13.85;;;;;;;5.04;89.50;95889.59;5129206;27;20047;-67
2020/12/13 09:39:10;;;;;;;81.63;14.95;;;;;;;5.00;89.70;95896.69;5129477;27;20051;-67
2020/12/13 09:41:37;;;;;;;78.60;14.48;;;;;;;5.09;89.51;95900.31;5130161;27;20128;-67
2020/12/13 09:44:03;;;;;;;76.85;14.35;;;;;;;4.95;89.59;95895.66;5129215;27;20086;-67
2020/12/13 09:46:29;;;;;;;86.32;14.45;;;;;;;5.04;89.57;95895.81;5129290;27;20043;-67
2020/12/13 09:48:55;;;;;;;80.47;14.55;;;;;;;5.07;89.59;95905.22;5129725;27;20043;-67
2020/12/13 09:51:21;;;;;;;90.70;15.27;;;;;;;5.01;89.68;95895.56;5126490;27;20047;-66
2020/12/13 09:53:47;;;;;;;75.38;14.23;;;;;;;5.09;89.80;95905.72;5129069;27;20046;-66
2020/12/13 09:56:16;;;;;;;76.72;14.88;;;;;;;5.05;89.52;95907.41;5128363;27;20051;-66
2020/12/13 09:58:43;;;;;;;69.85;12.75;;;;;;;5.14;89.50;95905.63;5128919;27;20073;-66
2020/12/13 10:01:09;;;;;;;64.90;13.23;;;;;;;5.18;89.27;95912.84;5127993;27;20054;-66
2020/12/13 10:03:37;;;;;;;72.15;13.48;;;;;;;5.18;89.13;95906.66;5128802;27;20084;-66
2020/12/13 10:06:26;;;;;;;69.40;12.98;;;;;;;5.23;89.24;95907.38;5128423;27;20557;-66
2020/12/13 10:11:40;;;;;;;68.57;12.98;;;;;;;5.29;89.28;95910.78;5128578;27;20077;-66
2020/12/13 10:14:10;;;;;;;85.95;13.27;;;;;;;5.39;89.07;95910.63;5127985;27;20063;-67
2020/12/13 10:16:37;;;;;;;78.60;13.35;;;;;;;5.34;88.99;95910.72;5128808;27;20043;-66
2020/12/13 10:19:03;;;;;;;75.93;11.73;;;;;;;5.09;88.96;95916.50;5128095;27;20588;-67
2020/12/13 10:21:31;;;;;;;63.15;12.10;;;;;;;5.10;89.59;95910.81;5128618;27;20047;-66
2020/12/13 10:23:58;;;;;;;75.13;11.60;;;;;;;5.11;89.36;95914.31;5128373;27;20734;-66
2020/12/13 10:26:25;;;;;;;60.83;11.23;;;;;;;5.04;89.48;95924.69;5127443;27;20043;-68
2020/12/13 10:28:52;;;;;;;66.25;11.90;;;;;;;5.05;89.70;95916.28;5128479;27;20521;-66
2020/12/13 10:31:20;;;;;;;67.97;11.57;;;;;;;4.93;89.68;95916.75;5128027;27;20525;-66
2020/12/13 10:33:46;;;;;;;75.68;11.52;;;;;;;4.97;89.92;95906.97;5128082;27;20063;-67
2020/12/13 10:36:13;;;;;;;71.97;11.85;;;;;;;5.02;89.55;95914.19;5128158;27;20055;-67
2020/12/13 10:38:40;;;;;;;64.20;11.27;;;;;;;4.94;89.58;95914.84;5128729;27;20043;-67
2020/12/13 10:41:07;;;;;;;68.85;11.48;;;;;;;4.86;89.69;95916.31;5127331;27;20047;-68
2020/12/13 10:43:34;;;;;;;97.53;12.40;;;;;;;4.82;89.96;95919.88;5128067;27;20162;-66
2020/12/13 10:46:02;;;;;;;71.20;11.48;;;;;;;4.83;90.29;95919.59;5127965;27;20059;-67
2020/12/13 10:48:29;;;;;;;88.22;11.65;;;;;;;4.94;90.13;95923.72;5127341;27;20051;-66
2020/12/13 10:50:55;;;;;;;55.25;10.38;;;;;;;5.02;89.80;95914.19;5127417;27;20039;-66
2020/12/13 10:53:21;;;;;;;49.92;10.23;;;;;;;5.07;89.57;95916.81;5127980;27;20901;-66
2020/12/13 10:55:47;;;;;;;88.53;10.90;;;;;;;5.05;89.60;95910.09;5125985;27;20134;-66
2020/12/13 10:58:13;;;;;;;82.63;10.73;;;;;;;5.05;89.07;95918.19;5126980;27;20307;-66
2020/12/13 11:00:39;;;;;;;67.15;11.32;;;;;;;5.02;89.59;95911.50;5127895;27;20130;-66
2020/12/13 11:03:05;;;;;;;59.33;9.70;;;;;;;5.05;89.31;95918.19;5127838;27;20462;-67
2020/12/13 11:05:32;;;;;;;62.63;10.07;;;;;;;4.91;89.45;95910.84;5127945;27;20555;-66
2020/12/13 11:07:58;;;;;;;50.22;9.10;;;;;;;4.89;89.76;95914.91;5128335;27;20050;-67
2020/12/13 11:10:24;;;;;;;57.70;9.40;;;;;;;4.86;89.85;95905.53;5126980;27;20464;-66
2020/12/13 11:12:50;;;;;;;83.68;10.77;;;;;;;5.00;89.95;95916.38;5127509;27;20053;-67
2020/12/13 11:15:16;;;;;;;69.25;10.32;;;;;;;5.02;89.81;95910.69;5127393;27;20047;-67
2020/12/13 11:17:42;;;;;;;60.33;9.10;;;;;;;5.06;89.37;95914.38;5127859;27;20047;-66
2020/12/13 11:20:08;;;;;;;64.28;10.00;;;;;;;5.15;89.46;95918.84;5127818;27;20047;-66
2020/12/13 11:22:35;;;;;;;68.43;9.10;;;;;;;5.08;89.41;95912.22;5126413;27;20035;-66
2020/12/13 11:25:01;;;;;;;62.67;10.15;;;;;;;5.11;89.46;95917.81;5126936;27;20058;-67
2020/12/13 11:27:27;;;;;;;70.88;9.50;;;;;;;5.01;89.09;95911.75;5127248;27;20501;-66
2020/12/13 11:29:53;;;;;;;42.47;8.40;;;;;;;4.97;89.24;95917.75;5128026;27;20667;-66
2020/12/13 11:32:19;;;;;;;53.83;9.55;;;;;;;4.96;89.67;95905.38;5127451;27;20043;-67
2020/12/13 11:34:45;;;;;;;74.75;10.00;;;;;;;5.05;89.47;95912.78;5127364;27;20387;-66
2020/12/13 11:37:11;;;;;;;58.83;10.02;;;;;;;5.00;89.91;95910.16;5125070;27;20051;-67